Time;durP1;ratioP1;P1;durP2;ratioP2;P2;SDS_P1;SDS_P2;PMS_P1;PMS_P2;Temp;Humidity;BMP_temperature;BMP_pressure;BME280_temperature;BME280_humidity;BME280_pressure;Samples;Min_cycle;Max_cycle;Signal;HPM_P1;HPM_P2
2022/08/01 00:00:59;;;;;;;2.70;2.50;;;;;21.50;96252.00;;;;8393899;28;20222;-69
2022/08/01 00:05:02;;;;;;;2.45;2.33;;;;;21.60;96252.00;;;;8392352;28;20242;-67
2022/08/01 00:09:05;;;;;;;4.20;2.58;;;;;21.50;96247.00;;;;8392439;28;20226;-68
2022/08/01 00:13:09;;;;;;;2.50;2.40;;;;;21.50;96244.00;;;;8392570;28;20234;-67
2022/08/01 00:17:14;;;;;;;2.53;2.30;;;;;21.50;96236.00;;;;8387167;28;20572;-70
2022/08/01 00:21:17;;;;;;;2.88;2.60;;;;;21.40;96245.00;;;;8390679;28;20219;-68
2022/08/01 00:25:20;;;;;;;2.60;2.50;;;;;21.40;96243.00;;;;8394982;28;20700;-70
2022/08/01 00:29:35;;;;;;;2.30;2.20;;;;;21.30;96240.00;;;;8388173;28;20246;-71
2022/08/01 00:34:00;;;;;;;3.92;2.40;;;;;21.30;96238.00;;;;8396608;28;20252;-68
2022/08/01 00:38:03;;;;;;;2.80;2.60;;;;;21.20;96236.00;;;;8402373;28;20238;-69
2022/08/01 00:42:07;;;;;;;3.05;2.25;;;;;21.10;96237.00;;;;8386833;28;20238;-69
2022/08/01 00:46:10;;;;;;;3.05;2.75;;;;;21.10;96229.00;;;;8393164;28;20232;-68
2022/08/01 00:50:15;;;;;;;2.70;2.50;;;;;21.00;96215.00;;;;8396797;28;20226;-68
2022/08/01 00:54:19;;;;;;;3.25;2.53;;;;;21.00;96220.00;;;;8391636;28;20234;-69
2022/08/01 00:58:22;;;;;;;2.80;2.60;;;;;21.00;96234.00;;;;8391322;28;20219;-70
2022/08/01 01:02:26;;;;;;;2.47;2.28;;;;;21.20;96235.00;;;;8402795;28;20227;-69
2022/08/01 01:06:42;;;;;;;2.65;2.45;;;;;21.40;96229.00;;;;8402545;28;20231;-69
2022/08/01 01:10:52;;;;;;;2.47;2.28;;;;;21.60;96235.00;;;;8393064;28;20546;-70
2022/08/01 01:15:02;;;;;;;3.50;2.60;;;;;21.60;96222.00;;;;8390721;28;20232;-70
2022/08/01 01:19:09;;;;;;;4.03;2.33;;;;;21.60;96230.00;;;;8398735;28;20227;-69
2022/08/01 01:23:35;;;;;;;4.90;2.90;;;;;21.50;96235.00;;;;8388268;28;20608;-68
2022/08/01 01:27:49;;;;;;;2.38;2.22;;;;;21.50;96241.00;;;;8395958;28;20313;-70
2022/08/01 01:31:58;;;;;;;4.20;2.72;;;;;21.60;96242.00;;;;8390393;28;20631;-70
2022/08/01 01:36:06;;;;;;;5.07;2.50;;;;;21.70;96248.00;;;;8389624;28;20225;-67
2022/08/01 01:40:14;;;;;;;2.85;2.65;;;;;21.80;96241.00;;;;8388782;28;20233;-67
2022/08/01 01:44:19;;;;;;;2.58;2.38;;;;;21.80;96239.00;;;;8399171;28;20257;-73
2022/08/01 01:48:25;;;;;;;4.95;2.50;;;;;21.90;96234.00;;;;8401968;28;20230;-69
2022/08/01 01:52:30;;;;;;;2.80;2.60;;;;;21.90;96231.00;;;;8388094;28;20228;-70
2022/08/01 01:56:48;;;;;;;2.45;2.25;;;;;22.00;96245.00;;;;8398243;28;20755;-68
2022/08/01 02:00:53;;;;;;;2.20;2.10;;;;;22.00;96243.00;;;;8391651;28;20242;-71
2022/08/01 02:04:58;;;;;;;4.43;2.67;;;;;22.10;96245.00;;;;8393092;28;20230;-70
2022/08/01 02:09:02;;;;;;;3.58;2.60;;;;;22.10;96245.00;;;;8387481;28;20669;-71
2022/08/01 02:13:07;;;;;;;3.45;2.25;;;;;22.10;96250.00;;;;8390428;28;20234;-70
2022/08/01 02:17:12;;;;;;;2.40;2.30;;;;;22.10;96250.00;;;;8401314;28;20227;-67
2022/08/01 02:21:24;;;;;;;2.40;2.20;;;;;22.10;96255.00;;;;8386505;28;20228;-69
2022/08/01 02:25:32;;;;;;;3.00;2.40;;;;;22.00;96259.00;;;;8390457;28;20622;-72
2022/08/01 02:29:41;;;;;;;3.88;2.40;;;;;22.00;96256.00;;;;8361156;28;20235;-70
2022/08/01 02:33:51;;;;;;;2.72;2.53;;;;;22.00;96260.00;;;;8394333;28;20265;-69
2022/08/01 02:37:58;;;;;;;3.15;2.83;;;;;22.00;96254.00;;;;8387260;28;20922;-70
2022/08/01 02:42:06;;;;;;;2.67;2.47;;;;;21.90;96260.00;;;;8389248;28;20222;-68
2022/08/01 02:46:15;;;;;;;2.53;2.20;;;;;22.00;96259.00;;;;8398529;28;20669;-71
2022/08/01 02:50:19;;;;;;;3.10;2.45;;;;;21.90;96268.00;;;;8396122;28;20231;-73
2022/08/01 02:54:26;;;;;;;3.88;2.67;;;;;22.00;96269.00;;;;8393751;28;20231;-73
2022/08/01 02:58:30;;;;;;;4.13;2.22;;;;;21.90;96265.00;;;;8376347;28;20224;-68
2022/08/01 03:02:35;;;;;;;2.70;2.50;;;;;21.90;96264.00;;;;8393106;22;20233;-68
2022/08/01 03:06:39;;;;;;;3.00;2.70;;;;;22.00;96262.00;;;;8323964;28;20707;-70
2022/08/01 03:10:50;;;;;;;2.65;2.45;;;;;22.00;96265.00;;;;8330427;28;20377;-69
2022/08/01 03:14:57;;;;;;;6.75;2.60;;;;;22.10;96271.00;;;;8325676;28;20256;-70
2022/08/01 03:19:03;;;;;;;3.72;2.35;;;;;22.10;96279.00;;;;8328463;28;20228;-70
2022/08/01 03:23:08;;;;;;;2.95;2.75;;;;;22.10;96281.00;;;;8321309;28;20922;-68
2022/08/01 03:27:15;;;;;;;6.45;2.50;;;;;22.00;96280.00;;;;8333575;28;20661;-71
2022/08/01 03:31:18;;;;;;;3.85;2.80;;;;;22.00;96282.00;;;;8340444;28;20329;-68
2022/08/01 03:35:24;;;;;;;3.45;3.03;;;;;22.00;96279.00;;;;8326544;28;20256;-68
2022/08/01 03:39:32;;;;;;;4.78;2.95;;;;;21.90;96278.00;;;;8341034;28;20224;-68
2022/08/01 03:43:41;;;;;;;4.22;2.65;;;;;21.90;96289.00;;;;8317731;28;20733;-68
2022/08/01 03:47:47;;;;;;;3.00;2.78;;;;;21.90;96294.00;;;;8345174;28;20221;-69
2022/08/01 03:51:54;;;;;;;6.60;3.05;;;;;21.90;96299.00;;;;8331161;28;20678;-66
2022/08/01 03:56:00;;;;;;;5.60;2.80;;;;;21.90;96304.00;;;;8337891;28;20681;-67
2022/08/01 04:00:08;;;;;;;5.22;2.90;;;;;21.90;96297.00;;;;8343942;28;20299;-71
2022/08/01 04:04:12;;;;;;;6.60;2.88;;;;;21.80;96300.00;;;;8303426;28;20283;-70
2022/08/01 04:08:15;;;;;;;3.35;2.75;;;;;21.90;96306.00;;;;8300536;28;20316;-72
2022/08/01 04:12:19;;;;;;;2.97;2.70;;;;;21.90;96310.00;;;;8298892;28;20607;-71
2022/08/01 04:16:24;;;;;;;8.40;3.55;;;;;21.90;96309.00;;;;8288023;28;20247;-73
2022/08/01 04:20:28;;;;;;;5.60;3.03;;;;;22.00;96306.00;;;;8300420;28;20241;-72
2022/08/01 04:24:33;;;;;;;5.18;3.03;;;;;22.10;96318.00;;;;8308843;28;20255;-73
2022/08/01 04:28:39;;;;;;;3.63;3.13;;;;;22.20;96318.00;;;;8308155;28;20229;-72
2022/08/01 04:32:47;;;;;;;3.45;3.15;;;;;22.20;96314.00;;;;8308928;28;20225;-71
2022/08/01 04:36:52;;;;;;;3.45;3.03;;;;;22.30;96328.00;;;;8309020;28;20304;-76
2022/08/01 04:40:57;;;;;;;4.15;3.30;;;;;22.40;96329.00;;;;8304332;28;20682;-74
2022/08/01 04:45:01;;;;;;;3.58;2.95;;;;;22.50;96328.00;;;;8295389;28;20221;-69
2022/08/01 04:49:08;;;;;;;3.53;3.10;;;;;22.60;96337.00;;;;8296971;28;20233;-72
2022/08/01 04:53:16;;;;;;;5.65;3.35;;;;;22.70;96337.00;;;;8300508;28;20253;-73
2022/08/01 04:57:20;;;;;;;4.35;2.85;;;;;22.90;96342.00;;;;8307778;28;20226;-72
2022/08/01 05:01:23;;;;;;;3.33;2.97;;;;;23.10;96348.00;;;;8306628;28;20240;-72
2022/08/01 05:05:28;;;;;;;5.45;3.20;;;;;23.30;96357.00;;;;8300813;28;20233;-72
2022/08/01 05:09:31;;;;;;;6.10;3.25;;;;;23.60;96371.00;;;;8301012;28;20229;-78
2022/08/01 05:13:35;;;;;;;3.20;2.90;;;;;23.80;96364.00;;;;8301858;28;20233;-74
2022/08/01 05:17:38;;;;;;;5.47;3.30;;;;;24.00;96361.00;;;;8304746;28;20248;-75
2022/08/01 05:21:43;;;;;;;3.88;3.30;;;;;24.20;96373.00;;;;8304420;28;20714;-74
2022/08/01 05:25:46;;;;;;;5.40;2.90;;;;;24.10;96383.00;;;;8297098;28;20228;-72
2022/08/01 05:30:00;;;;;;;4.00;2.97;;;;;23.90;96383.00;;;;8299558;28;20217;-72
2022/08/01 05:34:04;;;;;;;3.90;3.00;;;;;23.90;96381.00;;;;8305262;28;20264;-72
2022/08/01 05:38:18;;;;;;;3.10;2.80;;;;;23.90;96382.00;;;;8307497;28;20242;-71
2022/08/01 05:42:21;;;;;;;3.28;2.97;;;;;24.00;96382.00;;;;8293341;28;20239;-75
2022/08/01 05:46:24;;;;;;;3.10;2.90;;;;;24.00;96385.00;;;;8303941;28;20260;-70
2022/08/01 05:50:29;;;;;;;3.47;2.78;;;;;24.10;96391.00;;;;8314097;28;20269;-76
2022/08/01 05:54:34;;;;;;;3.15;2.85;;;;;24.20;96389.00;;;;8303907;28;20257;-73
2022/08/01 05:58:38;;;;;;;3.85;2.83;;;;;24.50;96393.00;;;;8298865;28;20229;-70
2022/08/01 06:02:42;;;;;;;5.22;2.53;;;;;24.70;96387.00;;;;8304205;28;20892;-70
2022/08/01 06:06:46;;;;;;;4.00;2.67;;;;;24.70;96395.00;;;;8300749;28;20299;-78
2022/08/01 06:10:50;;;;;;;4.88;2.28;;;;;24.80;96392.00;;;;8305748;28;20229;-70
2022/08/01 06:14:54;;;;;;;3.30;2.47;;;;;24.80;96400.00;;;;8298671;28;20248;-70
2022/08/01 06:18:57;;;;;;;2.60;2.40;;;;;25.00;96402.00;;;;8303745;28;20231;-77
2022/08/01 06:23:00;;;;;;;2.40;2.30;;;;;25.20;96412.00;;;;8299660;28;20643;-73
2022/08/01 06:27:25;;;;;;;2.72;2.47;;;;;25.30;96409.00;;;;8297945;28;20230;-71
2022/08/01 06:31:31;;;;;;;2.50;2.30;;;;;25.40;96415.00;;;;8301544;28;20725;-78
2022/08/01 06:35:36;;;;;;;2.58;2.20;;;;;25.60;96421.00;;;;8299078;28;20308;-72
2022/08/01 06:39:39;;;;;;;2.85;2.65;;;;;25.70;96420.00;;;;8299412;28;20228;-75
2022/08/01 06:43:44;;;;;;;4.20;2.00;;;;;26.10;96414.00;;;;8296317;28;20216;-69
2022/08/01 06:47:47;;;;;;;2.90;2.45;;;;;26.50;96415.00;;;;8301560;28;20232;-75
2022/08/01 06:51:53;;;;;;;2.40;2.10;;;;;26.70;96408.00;;;;8284187;28;20233;-71
2022/08/01 06:55:57;;;;;;;2.05;1.95;;;;;27.10;96421.00;;;;8301590;28;20765;-73
2022/08/01 07:00:03;;;;;;;2.00;1.90;;;;;27.50;96416.00;;;;8301071;28;20233;-73
2022/08/01 07:04:06;;;;;;;3.28;2.53;;;;;27.30;96431.00;;;;8302576;28;20255;-74
2022/08/01 07:08:10;;;;;;;3.25;1.92;;;;;27.80;96432.00;;;;8306592;28;20698;-75
2022/08/01 07:12:13;;;;;;;2.70;1.92;;;;;28.10;96433.00;;;;8298240;28;20614;-71
2022/08/01 07:16:18;;;;;;;2.33;1.85;;;;;28.40;96444.00;;;;8299710;28;21036;-71
2022/08/01 07:20:21;;;;;;;2.33;2.03;;;;;27.70;96440.00;;;;8303220;28;20224;-73
2022/08/01 07:24:25;;;;;;;2.97;2.30;;;;;27.10;96440.00;;;;8304619;28;20222;-71
2022/08/01 07:28:31;;;;;;;2.28;2.08;;;;;27.50;96446.00;;;;8308721;28;20259;-71
2022/08/01 07:32:35;;;;;;;2.53;2.33;;;;;28.00;96446.00;;;;8308556;28;20312;-73
2022/08/01 07:36:38;;;;;;;1.92;1.83;;;;;28.00;96439.00;;;;8302270;28;21135;-73
2022/08/01 07:40:42;;;;;;;2.22;2.10;;;;;28.20;96435.00;;;;8300454;28;20228;-72
2022/08/01 07:44:45;;;;;;;2.42;2.22;;;;;29.30;96438.00;;;;8311116;28;20998;-75
2022/08/01 07:48:50;;;;;;;3.35;2.55;;;;;29.70;96441.00;;;;8296256;28;20218;-72
2022/08/01 07:52:53;;;;;;;3.25;2.20;;;;;29.60;96440.00;;;;8298758;28;20229;-75
2022/08/01 07:56:56;;;;;;;2.55;2.30;;;;;29.60;96450.00;;;;8295262;28;20263;-71
2022/08/01 08:01:00;;;;;;;3.83;1.80;;;;;30.10;96447.00;;;;8300326;28;20322;-72
2022/08/01 08:05:06;;;;;;;4.35;2.67;;;;;31.00;96440.00;;;;8304345;28;20260;-72
2022/08/01 08:09:10;;;;;;;5.38;2.40;;;;;31.40;96445.00;;;;8298524;28;20233;-70
2022/08/01 08:13:16;;;;;;;2.40;2.20;;;;;31.60;96436.00;;;;8306535;28;20316;-72
2022/08/01 08:17:20;;;;;;;2.67;2.00;;;;;32.00;96437.00;;;;8294461;28;20324;-72
2022/08/01 08:21:25;;;;;;;2.00;1.90;;;;;31.50;96438.00;;;;8294309;28;20233;-71
2022/08/01 08:25:28;;;;;;;2.00;1.90;;;;;31.60;96435.00;;;;8298739;28;20579;-73
2022/08/01 08:29:32;;;;;;;2.75;2.00;;;;;31.70;96434.00;;;;8298578;28;20300;-72
2022/08/01 08:33:38;;;;;;;3.00;2.55;;;;;30.90;96439.00;;;;8304209;28;20224;-71
2022/08/01 08:37:42;;;;;;;2.20;2.10;;;;;30.90;96441.00;;;;8308781;28;20653;-72
2022/08/01 08:41:51;;;;;;;1.88;1.77;;;;;31.30;96441.00;;;;8301923;28;20306;-71
2022/08/01 08:45:55;;;;;;;2.13;1.92;;;;;30.70;96437.00;;;;8298869;28;20892;-72
2022/08/01 08:50:03;;;;;;;3.08;1.80;;;;;30.50;96448.00;;;;8304346;28;20344;-71
2022/08/01 08:54:09;;;;;;;3.58;1.45;;;;;31.00;96439.00;;;;8295562;28;20296;-71
2022/08/01 08:58:14;;;;;;;2.78;1.50;;;;;31.60;96434.00;;;;8301782;28;20238;-71
2022/08/01 09:02:17;;;;;;;1.88;1.77;;;;;31.60;96444.00;;;;8297428;28;20698;-71
2022/08/01 09:06:20;;;;;;;1.65;1.50;;;;;31.10;96448.00;;;;8302827;28;20231;-71
2022/08/01 09:10:28;;;;;;;1.70;1.60;;;;;31.30;96446.00;;;;8307378;28;20221;-71
2022/08/01 09:14:34;;;;;;;3.05;1.83;;;;;31.90;96448.00;;;;8307591;28;20320;-71
2022/08/01 09:18:40;;;;;;;1.77;1.67;;;;;32.70;96452.00;;;;8296018;28;20706;-71
2022/08/01 09:22:43;;;;;;;1.75;1.40;;;;;33.30;96437.00;;;;8307986;28;20239;-71
2022/08/01 09:26:52;;;;;;;1.45;1.25;;;;;32.60;96448.00;;;;8304733;28;20237;-71
2022/08/01 09:30:56;;;;;;;1.33;1.23;;;;;31.60;96454.00;;;;8302962;28;20236;-70
2022/08/01 09:35:24;;;;;;;1.60;1.50;;;;;31.90;96453.00;;;;8305450;28;20232;-71
2022/08/01 09:39:37;;;;;;;2.40;1.48;;;;;32.10;96454.00;;;;8303864;28;20237;-70
2022/08/01 09:43:49;;;;;;;1.45;1.35;;;;;32.00;96455.00;;;;8305920;28;20789;-72
2022/08/01 09:47:52;;;;;;;1.42;1.20;;;;;31.40;96455.00;;;;8303457;28;20226;-71
2022/08/01 09:51:57;;;;;;;2.28;1.20;;;;;30.60;96453.00;;;;8307537;28;20237;-70
2022/08/01 09:56:11;;;;;;;6.97;1.90;;;;;30.20;96451.00;;;;8292460;28;20225;-70
2022/08/01 10:00:19;;;;;;;3.30;1.30;;;;;30.90;96450.00;;;;8298149;28;20316;-70
2022/08/01 10:04:49;;;;;;;1.90;1.30;;;;;32.50;96444.00;;;;8300366;28;20232;-70
2022/08/01 10:08:53;;;;;;;1.67;1.48;;;;;33.90;96441.00;;;;8301161;28;20228;-71
2022/08/01 10:12:57;;;;;;;1.10;1.10;;;;;34.80;96439.00;;;;8305033;28;20247;-70
2022/08/01 10:17:03;;;;;;;1.65;1.27;;;;;35.30;96440.00;;;;8300711;28;20704;-72
2022/08/01 10:21:11;;;;;;;2.22;1.30;;;;;34.10;96433.00;;;;8302399;28;20308;-72
2022/08/01 10:25:17;;;;;;;1.50;1.40;;;;;33.10;96440.00;;;;8295069;28;20232;-72
2022/08/01 10:29:50;;;;;;;1.40;1.40;;;;;32.70;96435.00;;;;8302236;28;20264;-72
2022/08/01 10:34:15;;;;;;;1.40;1.40;;;;;31.90;96441.00;;;;8298062;28;20229;-72
2022/08/01 10:38:19;;;;;;;2.80;1.40;;;;;31.30;96430.00;;;;8299838;28;20263;-72
2022/08/01 10:42:24;;;;;;;1.70;1.60;;;;;30.80;96427.00;;;;8308986;28;20226;-74
2022/08/01 10:46:29;;;;;;;1.88;1.52;;;;;30.90;96430.00;;;;8301964;28;20243;-75
2022/08/01 10:50:40;;;;;;;3.42;1.40;;;;;31.10;96438.00;;;;8304821;28;20282;-75
2022/08/01 10:54:44;;;;;;;1.70;1.60;;;;;30.80;96427.00;;;;8312104;28;20239;-76
2022/08/01 10:59:03;;;;;;;2.28;1.50;;;;;30.80;96429.00;;;;8308756;28;20229;-74
2022/08/01 11:03:13;;;;;;;1.30;1.30;;;;;30.80;96433.00;;;;8308897;28;20236;-74
2022/08/01 11:07:22;;;;;;;1.40;1.30;;;;;32.30;96423.00;;;;8309341;28;20232;-73
2022/08/01 11:11:28;;;;;;;1.80;1.70;;;;;33.50;96407.00;;;;8285968;28;20279;-73
2022/08/01 11:15:42;;;;;;;3.10;1.70;;;;;34.40;96410.00;;;;8308858;28;20263;-73
2022/08/01 11:20:05;;;;;;;3.67;1.83;;;;;34.60;96413.00;;;;8294380;28;20282;-73
2022/08/01 11:24:11;;;;;;;1.42;1.25;;;;;33.50;96410.00;;;;8295545;28;20589;-75
2022/08/01 11:28:20;;;;;;;1.50;1.40;;;;;32.70;96418.00;;;;8307577;28;20244;-74
2022/08/01 11:32:47;;;;;;;1.95;1.48;;;;;32.40;96407.00;;;;8311538;28;20228;-74
2022/08/01 11:37:29;;;;;;;1.48;1.38;;;;;33.00;96410.00;;;;8298758;28;20276;-74
2022/08/01 11:41:35;;;;;;;1.38;1.30;;;;;34.30;96402.00;;;;8298912;28;20229;-74
2022/08/01 11:45:51;;;;;;;4.07;1.40;;;;;34.00;96418.00;;;;8303007;28;20240;-74
2022/08/01 11:49:57;;;;;;;2.03;1.45;;;;;33.30;96415.00;;;;8299556;28;20225;-74
2022/08/01 11:54:01;;;;;;;1.50;1.40;;;;;32.80;96425.00;;;;8299954;28;20236;-73
2022/08/01 11:58:08;;;;;;;5.85;1.52;;;;;32.20;96420.00;;;;8298280;28;20390;-72
2022/08/01 12:02:33;;;;;;;3.08;1.40;;;;;31.50;96422.00;;;;8295175;28;20323;-72
2022/08/01 12:06:37;;;;;;;1.33;1.33;;;;;31.30;96420.00;;;;8290069;28;20229;-72
2022/08/01 12:10:51;;;;;;;1.50;1.40;;;;;31.50;96419.00;;;;8295173;28;21467;-69
2022/08/01 12:15:08;;;;;;;3.78;1.40;;;;;32.20;96407.00;;;;8298716;28;20601;-72
2022/08/01 12:19:18;;;;;;;1.35;1.30;;;;;32.50;96408.00;;;;8295737;28;20221;-74
2022/08/01 12:23:21;;;;;;;1.50;1.40;;;;;32.40;96409.00;;;;8295422;28;20240;-75
2022/08/01 12:27:26;;;;;;;1.60;1.30;;;;;32.50;96408.00;;;;8298807;28;20229;-74
2022/08/01 12:31:35;;;;;;;1.20;1.20;;;;;33.20;96415.00;;;;8299815;28;20586;-74
2022/08/01 12:35:41;;;;;;;3.05;1.48;;;;;33.00;96405.00;;;;8292985;28;20222;-74
2022/08/01 12:39:48;;;;;;;1.40;1.30;;;;;32.80;96406.00;;;;8292370;28;20283;-73
2022/08/01 12:43:52;;;;;;;1.50;1.40;;;;;32.50;96421.00;;;;8284044;28;20688;-74
2022/08/01 12:47:59;;;;;;;1.60;1.50;;;;;31.80;96410.00;;;;8298229;28;20231;-74
2022/08/01 12:52:02;;;;;;;1.58;1.48;;;;;32.10;96398.00;;;;8306447;28;20236;-73
2022/08/01 12:56:06;;;;;;;1.42;1.25;;;;;32.00;96394.00;;;;8298529;28;20238;-73
2022/08/01 13:00:14;;;;;;;2.72;1.50;;;;;31.80;96389.00;;;;8300672;28;20779;-74
2022/08/01 13:04:19;;;;;;;1.45;1.40;;;;;31.70;96383.00;;;;8298609;28;20315;-73
2022/08/01 13:08:24;;;;;;;1.55;1.40;;;;;31.90;96379.00;;;;8302518;28;20643;-73
2022/08/01 13:12:28;;;;;;;2.33;1.25;;;;;32.10;96381.00;;;;8301788;28;20889;-74
2022/08/01 13:16:31;;;;;;;3.58;1.25;;;;;32.30;96377.00;;;;8307471;28;20236;-73
2022/08/01 13:21:12;;;;;;;1.08;1.08;;;;;32.50;96372.00;;;;8307221;28;20633;-73
2022/08/01 13:25:17;;;;;;;1.48;1.20;;;;;32.40;96367.00;;;;8300252;28;20225;-72
2022/08/01 13:29:31;;;;;;;1.25;1.05;;;;;32.50;96356.00;;;;8304742;28;20320;-71
2022/08/01 13:33:45;;;;;;;1.00;1.00;;;;;32.50;96360.00;;;;8302188;28;20316;-71
2022/08/01 13:38:03;;;;;;;1.20;1.20;;;;;32.70;96346.00;;;;8310745;28;20247;-72
2022/08/01 13:42:06;;;;;;;1.63;1.20;;;;;33.80;96347.00;;;;8302329;28;20850;-71
2022/08/01 13:46:10;;;;;;;1.10;1.10;;;;;34.50;96343.00;;;;8313132;28;20841;-71
2022/08/01 13:50:20;;;;;;;1.17;1.17;;;;;35.20;96343.00;;;;8301680;28;20235;-73
2022/08/01 13:54:25;;;;;;;1.95;1.00;;;;;35.90;96336.00;;;;8298660;28;20712;-74
2022/08/01 13:58:29;;;;;;;0.82;0.82;;;;;36.30;96342.00;;;;8307259;28;20651;-71
2022/08/01 14:02:32;;;;;;;2.33;1.05;;;;;36.10;96336.00;;;;8308441;28;20245;-71
2022/08/01 14:06:35;;;;;;;1.13;1.00;;;;;36.30;96339.00;;;;8296298;28;20315;-69
2022/08/01 14:10:40;;;;;;;1.00;1.00;;;;;36.10;96337.00;;;;8306553;28;20233;-72
2022/08/01 14:14:45;;;;;;;0.85;0.82;;;;;35.80;96335.00;;;;8300969;28;20225;-72
2022/08/01 14:18:49;;;;;;;1.00;1.00;;;;;36.10;96341.00;;;;8303832;28;20217;-71
2022/08/01 14:22:52;;;;;;;1.60;1.20;;;;;36.60;96344.00;;;;8313585;28;20324;-72
2022/08/01 14:26:56;;;;;;;1.65;0.80;;;;;36.30;96348.00;;;;8305426;28;20221;-72
2022/08/01 14:31:00;;;;;;;2.13;0.80;;;;;36.40;96346.00;;;;8299878;28;20232;-72
2022/08/01 14:35:04;;;;;;;1.02;1.02;;;;;36.30;96353.00;;;;8303017;28;20243;-71
2022/08/01 14:39:08;;;;;;;3.13;0.90;;;;;36.10;96352.00;;;;8301521;28;20233;-71
2022/08/01 14:43:18;;;;;;;0.77;0.77;;;;;36.00;96351.00;;;;8303097;28;20671;-71
2022/08/01 14:47:30;;;;;;;1.00;1.00;;;;;35.80;96346.00;;;;8307339;28;20742;-72
2022/08/01 14:51:34;;;;;;;2.05;0.98;;;;;36.50;96342.00;;;;8306446;28;20251;-72
2022/08/01 14:55:38;;;;;;;0.85;0.85;;;;;36.70;96348.00;;;;8311757;28;20236;-72
2022/08/01 14:59:45;;;;;;;1.48;1.00;;;;;36.40;96354.00;;;;8309201;28;20233;-72
2022/08/01 15:03:50;;;;;;;2.08;0.90;;;;;36.30;96338.00;;;;8291550;28;20600;-72
2022/08/01 15:07:53;;;;;;;0.90;0.90;;;;;35.80;96335.00;;;;8298753;28;20556;-72
2022/08/01 15:11:57;;;;;;;1.27;1.15;;;;;35.00;96346.00;;;;8319362;28;20345;-71
2022/08/01 15:16:02;;;;;;;1.20;1.10;;;;;34.60;96347.00;;;;8314808;28;20703;-71
2022/08/01 15:20:07;;;;;;;1.73;1.00;;;;;34.50;96361.00;;;;8300622;28;20229;-71
2022/08/01 15:24:10;;;;;;;1.13;1.05;;;;;33.90;96361.00;;;;8298225;28;20296;-71
2022/08/01 15:28:14;;;;;;;1.25;1.05;;;;;33.60;96354.00;;;;8295185;28;20853;-70
2022/08/01 15:32:20;;;;;;;2.60;1.40;;;;;33.60;96355.00;;;;8305279;28;20233;-70
2022/08/01 15:36:24;;;;;;;1.83;1.13;;;;;33.60;96350.00;;;;8295394;28;20232;-71
2022/08/01 15:40:28;;;;;;;3.15;1.30;;;;;33.40;96355.00;;;;8300418;28;20226;-71
2022/08/01 15:44:33;;;;;;;4.35;1.42;;;;;33.60;96363.00;;;;8312718;28;20241;-71
2022/08/01 15:48:38;;;;;;;1.70;1.30;;;;;33.60;96359.00;;;;8305143;28;20236;-71
2022/08/01 15:52:46;;;;;;;8.45;1.35;;;;;33.70;96373.00;;;;8311853;28;20687;-73
2022/08/01 15:56:50;;;;;;;1.65;1.20;;;;;32.80;96368.00;;;;8322794;28;20682;-71
2022/08/01 16:00:53;;;;;;;1.98;1.40;;;;;32.30;96360.00;;;;8318211;28;20221;-72
2022/08/01 16:04:58;;;;;;;2.58;1.20;;;;;32.40;96353.00;;;;8316850;28;20226;-73
2022/08/01 16:09:01;;;;;;;1.30;1.20;;;;;32.30;96361.00;;;;8312092;28;20235;-72
2022/08/01 16:13:04;;;;;;;1.02;1.02;;;;;32.20;96363.00;;;;8314207;28;20300;-71
2022/08/01 16:17:09;;;;;;;1.25;1.15;;;;;32.10;96367.00;;;;8321199;28;20249;-71
2022/08/01 16:21:15;;;;;;;1.13;1.13;;;;;31.80;96353.00;;;;8315539;28;20292;-71
2022/08/01 16:25:18;;;;;;;1.58;1.00;;;;;32.00;96350.00;;;;8314508;28;20233;-71
2022/08/01 16:29:21;;;;;;;1.13;1.13;;;;;31.80;96356.00;;;;8310868;28;20340;-72
2022/08/01 16:33:25;;;;;;;1.10;1.10;;;;;31.70;96354.00;;;;8306029;28;20217;-71
2022/08/01 16:37:50;;;;;;;1.30;1.20;;;;;31.70;96357.00;;;;8298668;28;20288;-72
2022/08/01 16:41:53;;;;;;;1.45;1.33;;;;;31.50;96353.00;;;;8307920;28;20233;-71
2022/08/01 16:45:57;;;;;;;1.17;1.17;;;;;31.10;96359.00;;;;8316725;28;20213;-70
2022/08/01 16:50:00;;;;;;;1.30;1.30;;;;;30.80;96354.00;;;;8298195;28;20225;-71
2022/08/01 16:54:06;;;;;;;2.15;1.23;;;;;30.70;96348.00;;;;8285945;28;20235;-71
2022/08/01 16:58:30;;;;;;;1.20;1.20;;;;;30.70;96343.00;;;;8307272;28;20267;-72
2022/08/01 17:02:33;;;;;;;1.35;1.30;;;;;30.80;96343.00;;;;8305343;28;20233;-72
2022/08/01 17:06:37;;;;;;;2.33;1.40;;;;;30.80;96338.00;;;;8299150;28;20512;-71
2022/08/01 17:10:42;;;;;;;2.47;1.48;;;;;30.70;96341.00;;;;8300239;28;20829;-68
2022/08/01 17:14:45;;;;;;;2.15;1.30;;;;;31.20;96346.00;;;;8305758;28;20236;-70
2022/08/01 17:19:17;;;;;;;3.10;1.40;;;;;31.70;96349.00;;;;8326856;28;20228;-67
2022/08/01 17:23:51;;;;;;;1.50;1.50;;;;;31.40;96354.00;;;;8328817;28;20232;-67
2022/08/01 17:28:27;;;;;;;2.65;1.42;;;;;31.10;96360.00;;;;8328611;28;20217;-67
2022/08/01 17:33:06;;;;;;;2.85;1.30;;;;;30.70;96366.00;;;;8327111;28;20328;-67
2022/08/01 17:37:40;;;;;;;3.40;1.50;;;;;30.30;96375.00;;;;8326014;28;20301;-67
2022/08/01 17:42:17;;;;;;;1.40;1.30;;;;;29.90;96374.00;;;;8327198;28;20233;-67
2022/08/01 17:46:54;;;;;;;1.77;1.35;;;;;29.40;96384.00;;;;8328942;28;20221;-67
2022/08/01 17:51:33;;;;;;;1.55;1.40;;;;;29.30;96386.00;;;;8327317;28;20213;-67
2022/08/01 17:56:07;;;;;;;1.63;1.30;;;;;29.20;96383.00;;;;8328017;28;20224;-67
2022/08/01 18:00:44;;;;;;;3.25;1.40;;;;;29.10;96381.00;;;;8327975;28;20221;-67
2022/08/01 18:10:06;;;;;;;2.38;1.65;;;;;28.70;96377.00;;;;8325333;28;20307;-67
2022/08/01 18:14:38;;;;;;;1.30;1.30;;;;;28.40;96380.00;;;;8328066;28;20685;-67
2022/08/01 18:19:13;;;;;;;1.70;1.50;;;;;28.20;96385.00;;;;8327165;28;20559;-67
2022/08/01 18:23:50;;;;;;;11.93;2.10;;;;;28.00;96386.00;;;;8326906;28;20317;-67
2022/08/01 18:28:29;;;;;;;26.02;2.63;;;;;27.80;96396.00;;;;8326453;28;20213;-67
2022/08/01 18:33:05;;;;;;;22.77;2.25;;;;;27.60;96396.00;;;;8327290;28;20233;-67
2022/08/01 18:37:42;;;;;;;18.50;2.95;;;;;27.40;96399.00;;;;8326489;28;20681;-68
2022/08/01 18:42:18;;;;;;;4.18;1.95;;;;;27.20;96399.00;;;;8327841;28;20316;-67
2022/08/01 18:46:56;;;;;;;4.63;1.75;;;;;27.10;96407.00;;;;8327081;28;20300;-67
2022/08/01 18:51:30;;;;;;;3.17;2.05;;;;;27.00;96408.00;;;;8326251;28;20244;-68
2022/08/01 18:56:10;;;;;;;6.35;1.67;;;;;26.90;96410.00;;;;8320444;28;20700;-68
2022/08/01 19:00:44;;;;;;;3.55;2.08;;;;;26.80;96418.00;;;;8327047;28;20231;-68
2022/08/01 19:10:05;;;;;;;1.92;1.80;;;;;26.60;96428.00;;;;8315192;28;20263;-67
2022/08/01 19:14:37;;;;;;;2.15;1.95;;;;;26.60;96435.00;;;;8327702;28;20221;-68
2022/08/01 19:18:40;;;;;;;3.00;1.88;;;;;26.50;96430.00;;;;8333296;28;20240;-67
2022/08/01 19:27:57;;;;;;;3.90;1.88;;;;;26.30;96429.00;;;;8331045;28;20221;-69
2022/08/01 19:32:31;;;;;;;2.88;1.70;;;;;26.20;96448.00;;;;8333182;28;20219;-66
2022/08/01 19:37:05;;;;;;;5.60;2.03;;;;;26.10;96452.00;;;;8332502;28;20306;-67
2022/08/01 19:41:44;;;;;;;4.55;1.90;;;;;26.10;96460.00;;;;8332199;28;20244;-67
2022/08/01 19:46:19;;;;;;;3.22;2.03;;;;;26.10;96462.00;;;;8319625;28;20762;-67
2022/08/01 19:51:00;;;;;;;2.20;2.00;;;;;26.00;96465.00;;;;8332583;28;20213;-67
2022/08/01 19:55:32;;;;;;;2.63;1.83;;;;;26.00;96470.00;;;;8331423;28;20217;-68
2022/08/01 20:00:09;;;;;;;2.80;1.95;;;;;25.70;96476.00;;;;8332056;28;20229;-67
2022/08/01 20:04:45;;;;;;;2.15;2.05;;;;;25.40;96472.00;;;;8319738;28;20307;-68
2022/08/01 20:09:19;;;;;;;3.95;2.47;;;;;25.30;96478.00;;;;8332330;28;20221;-67
2022/08/01 20:13:57;;;;;;;2.40;2.20;;;;;25.10;96492.00;;;;8331142;28;20292;-66
2022/08/01 20:18:00;;;;;;;1.95;1.85;;;;;25.10;96488.00;;;;8331575;28;20248;-67
2022/08/01 20:22:07;;;;;;;2.70;2.17;;;;;25.10;96495.00;;;;8331272;28;20304;-67
2022/08/01 20:26:41;;;;;;;2.10;2.00;;;;;24.90;96488.00;;;;8330031;28;20240;-67
2022/08/01 20:31:18;;;;;;;4.03;1.90;;;;;24.70;96491.00;;;;8330494;28;20213;-68
2022/08/01 20:35:53;;;;;;;2.10;2.00;;;;;24.50;96491.00;;;;8331740;28;20555;-68
2022/08/01 20:40:32;;;;;;;2.13;1.98;;;;;24.20;96478.00;;;;8329887;28;20256;-70
2022/08/01 20:45:06;;;;;;;2.80;2.20;;;;;24.00;96478.00;;;;8330397;28;20227;-70
2022/08/01 20:49:12;;;;;;;3.30;2.10;;;;;23.80;96478.00;;;;8330130;28;20284;-70
2022/08/01 20:53:47;;;;;;;2.70;2.00;;;;;23.60;96466.00;;;;8330515;28;20225;-70
2022/08/01 20:57:55;;;;;;;3.58;2.30;;;;;23.40;96476.00;;;;8329146;28;20567;-70
2022/08/01 21:02:08;;;;;;;2.13;2.03;;;;;23.20;96480.00;;;;8329820;28;20316;-70
2022/08/01 21:06:42;;;;;;;4.93;2.20;;;;;23.10;96498.00;;;;8317235;28;20247;-71
2022/08/01 21:10:46;;;;;;;2.80;2.40;;;;;23.00;96495.00;;;;8296442;28;20250;-70